Anvik, Alaska
Current Conditions -  °F | °C
As of 1:16 PM on Wednesday 28 Jan 2015 (Local Time) from PANV Reporting Station
Clear Clear  
Wind Chill: -28°   Ceiling: Unl
Heat Index: -8°   Visibility: 10mi
Dew Point: -20°   Wind: 13mph
Humidity: 54%   Direction: 40°NE
Pressure: 30.31"   Gusts: 18mph
Location:  62.66°N, 160.21°W
Report Text: PANV 282216Z AUTO 04011G16KT 10SM CLR M22/M29 A3031 RMK AO1
Loading
Personal Weather Stations






























Interactive Weather Map New forecast layout! Learn more

10-Day Weather Forecast

Advertisements
Track Severe Weather on mobile